Time;durP1;ratioP1;P1;durP2;ratioP2;P2;SDS_P1;SDS_P2;PMS_P1;PMS_P2;Temp;Humidity;BMP_temperature;BMP_pressure;BME280_temperature;BME280_humidity;BME280_pressure;Samples;Min_cycle;Max_cycle;Signal;HPM_P1;HPM_P2
2021/09/19 00:01:20;;;;;;;5.70;3.22;;;16.60;70.70;;;;;;2468660;55;21878;-86
2021/09/19 00:03:46;;;;;;;4.72;3.25;;;16.60;70.70;;;;;;2257243;56;21014;-86
2021/09/19 00:06:13;;;;;;;5.35;3.10;;;16.50;70.60;;;;;;2270057;55;21283;-86
2021/09/19 00:08:39;;;;;;;7.03;4.22;;;16.50;70.60;;;;;;2247673;55;21607;-86
2021/09/19 00:11:05;;;;;;;5.90;3.78;;;16.50;70.70;;;;;;2259207;55;21018;-87
2021/09/19 00:13:32;;;;;;;6.25;3.70;;;16.50;70.70;;;;;;2486799;54;21012;-87
2021/09/19 00:15:58;;;;;;;5.45;3.33;;;16.40;70.60;;;;;;2486579;54;21879;-86
2021/09/19 00:18:24;;;;;;;5.10;3.35;;;16.40;70.60;;;;;;2274106;55;20971;-87
2021/09/19 00:20:50;;;;;;;4.85;3.03;;;16.40;70.80;;;;;;2448376;55;21666;-85
2021/09/19 00:23:17;;;;;;;4.80;3.05;;;16.40;70.80;;;;;;2464753;55;21624;-86
2021/09/19 00:25:43;;;;;;;6.20;4.05;;;16.30;70.80;;;;;;2276706;55;22045;-86
2021/09/19 00:28:09;;;;;;;5.18;3.40;;;16.30;71.00;;;;;;2472010;54;21563;-85
2021/09/19 00:30:35;;;;;;;5.20;3.72;;;16.30;71.10;;;;;;2259302;55;21032;-87
2021/09/19 00:33:02;;;;;;;6.80;4.18;;;16.30;71.00;;;;;;2479500;54;20982;-87
2021/09/19 00:35:28;;;;;;;4.35;3.03;;;16.20;71.00;;;;;;2476862;55;21008;-87
2021/09/19 00:37:54;;;;;;;5.97;3.47;;;16.20;70.90;;;;;;2465926;55;21062;-84
2021/09/19 00:40:21;;;;;;;7.40;4.43;;;16.20;70.90;;;;;;2482711;55;22147;-85
2021/09/19 00:42:47;;;;;;;6.10;4.03;;;16.20;70.90;;;;;;2480698;55;20985;-86
2021/09/19 00:45:18;;;;;;;5.43;3.85;;;16.20;70.90;;;;;;2468815;54;20962;-86
2021/09/19 00:47:44;;;;;;;8.07;3.87;;;16.10;70.80;;;;;;2237480;56;20971;-85
2021/09/19 00:50:12;;;;;;;6.22;3.78;;;16.10;70.80;;;;;;2472834;55;20957;-86
2021/09/19 00:52:39;;;;;;;5.07;3.40;;;16.10;70.80;;;;;;2473640;55;21010;-87
2021/09/19 00:55:06;;;;;;;4.37;2.70;;;16.10;70.70;;;;;;2485674;54;21300;-86
2021/09/19 00:57:33;;;;;;;7.40;3.55;;;16.00;70.70;;;;;;2458968;55;21031;-86
2021/09/19 00:59:59;;;;;;;5.37;3.53;;;16.00;70.70;;;;;;2259900;55;22049;-87
2021/09/19 01:02:25;;;;;;;5.25;3.47;;;16.00;70.80;;;;;;2259361;55;21846;-86
2021/09/19 01:04:52;;;;;;;4.07;2.92;;;15.90;70.60;;;;;;2441009;55;21052;-88
2021/09/19 01:07:18;;;;;;;4.47;2.90;;;15.90;70.70;;;;;;2260654;56;21002;-86
2021/09/19 01:09:44;;;;;;;5.12;3.28;;;15.90;70.80;;;;;;2487532;54;21780;-87
2021/09/19 01:12:11;;;;;;;4.47;2.85;;;15.80;70.70;;;;;;2478289;55;20957;-86
2021/09/19 01:14:38;;;;;;;6.70;3.22;;;15.80;70.80;;;;;;2485035;55;20958;-85
2021/09/19 01:17:07;;;;;;;5.72;3.70;;;15.80;70.90;;;;;;2256495;55;21080;-86
2021/09/19 01:19:35;;;;;;;5.00;3.03;;;15.80;70.90;;;;;;2264906;55;21084;-86
2021/09/19 01:22:02;;;;;;;5.03;2.90;;;15.80;71.00;;;;;;2485799;54;21001;-87
2021/09/19 01:24:28;;;;;;;5.47;3.67;;;15.70;71.00;;;;;;2252449;54;20957;-86
2021/09/19 01:26:55;;;;;;;4.70;3.15;;;15.70;71.10;;;;;;2431111;55;20988;-87
2021/09/19 01:29:21;;;;;;;5.03;3.33;;;15.70;71.10;;;;;;2239859;55;20953;-87
2021/09/19 01:31:50;;;;;;;6.03;3.67;;;15.70;71.20;;;;;;2460007;55;20989;-86
2021/09/19 01:34:17;;;;;;;5.57;3.50;;;15.70;71.10;;;;;;2252228;56;21015;-86
2021/09/19 01:36:43;;;;;;;5.80;3.42;;;15.70;71.20;;;;;;2478932;54;22088;-86
2021/09/19 01:39:09;;;;;;;4.78;3.00;;;15.60;71.00;;;;;;2261502;55;21007;-86
2021/09/19 01:41:36;;;;;;;7.00;3.65;;;15.60;70.90;;;;;;2460444;55;21008;-87
2021/09/19 01:44:03;;;;;;;4.93;3.53;;;15.60;70.80;;;;;;2254515;56;21040;-85
2021/09/19 01:46:29;;;;;;;4.50;3.17;;;15.60;70.90;;;;;;2467463;55;20991;-85
2021/09/19 01:48:56;;;;;;;5.00;3.50;;;15.50;70.70;;;;;;2250995;56;21019;-85
2021/09/19 01:51:22;;;;;;;4.72;3.30;;;15.50;70.80;;;;;;2451469;55;21027;-86
2021/09/19 01:53:50;;;;;;;6.40;3.05;;;15.50;70.80;;;;;;2462061;55;21042;-85
2021/09/19 01:56:18;;;;;;;4.45;3.08;;;15.50;70.90;;;;;;2479492;55;21046;-85
2021/09/19 01:58:47;;;;;;;4.37;2.83;;;15.40;70.90;;;;;;2477169;55;21085;-84
2021/09/19 02:01:13;;;;;;;5.85;3.00;;;15.40;71.70;;;;;;2476011;55;20996;-86
2021/09/19 02:03:41;;;;;;;4.93;3.30;;;15.40;71.10;;;;;;2239663;55;21011;-87
2021/09/19 02:06:08;;;;;;;5.10;3.55;;;15.40;71.10;;;;;;2455614;55;21013;-86
2021/09/19 02:08:37;;;;;;;6.18;3.33;;;15.40;71.20;;;;;;2263424;56;20984;-87
2021/09/19 02:11:07;;;;;;;6.57;3.37;;;15.30;71.10;;;;;;2467186;55;21011;-86
2021/09/19 02:13:34;;;;;;;4.40;3.20;;;15.40;71.20;;;;;;2459510;55;20984;-85
2021/09/19 02:16:00;;;;;;;4.95;3.30;;;15.30;71.10;;;;;;2471355;55;21057;-86
2021/09/19 02:18:26;;;;;;;6.55;3.42;;;15.30;71.10;;;;;;2497593;53;20962;-85
2021/09/19 02:20:53;;;;;;;4.90;3.55;;;15.30;71.20;;;;;;2260952;56;21516;-86
2021/09/19 02:23:19;;;;;;;5.53;3.55;;;15.30;71.20;;;;;;2486893;55;21830;-86
2021/09/19 02:25:46;;;;;;;6.28;3.97;;;15.30;71.20;;;;;;2275587;55;20970;-86
2021/09/19 02:28:12;;;;;;;5.60;3.80;;;15.30;71.30;;;;;;2499308;53;21477;-86
2021/09/19 02:30:39;;;;;;;5.07;3.40;;;15.20;71.20;;;;;;2261142;55;21385;-87
2021/09/19 02:33:05;;;;;;;4.57;2.95;;;15.20;71.20;;;;;;2486802;54;21008;-87
2021/09/19 02:35:31;;;;;;;5.75;3.50;;;15.20;71.20;;;;;;2263185;55;20980;-86
2021/09/19 02:37:58;;;;;;;4.65;3.37;;;15.20;71.10;;;;;;2485714;54;21745;-86
2021/09/19 02:40:25;;;;;;;6.43;3.40;;;15.20;71.10;;;;;;2486649;54;21052;-85
2021/09/19 02:42:51;;;;;;;4.53;3.10;;;15.20;71.10;;;;;;2262319;55;21099;-86
2021/09/19 02:45:17;;;;;;;4.75;3.20;;;15.20;71.20;;;;;;2449666;55;22030;-86
2021/09/19 02:47:44;;;;;;;5.22;3.35;;;15.10;71.10;;;;;;2250746;56;20929;-86
2021/09/19 02:50:15;;;;;;;4.93;3.20;;;15.10;71.10;;;;;;2459137;55;20992;-86
2021/09/19 02:52:41;;;;;;;4.72;2.85;;;15.10;71.20;;;;;;2247887;56;21173;-87
2021/09/19 02:55:13;;;;;;;4.68;3.00;;;15.10;71.20;;;;;;2481842;54;21128;-85
2021/09/19 02:57:40;;;;;;;4.62;2.92;;;15.10;71.10;;;;;;2444092;55;21019;-87
2021/09/19 03:00:07;;;;;;;4.28;2.70;;;15.10;71.20;;;;;;2452903;55;20992;-85
2021/09/19 03:02:33;;;;;;;4.60;3.05;;;15.00;71.10;;;;;;2485528;54;21020;-87
2021/09/19 03:05:00;;;;;;;5.53;3.40;;;15.00;71.00;;;;;;2478746;54;21051;-86
2021/09/19 03:07:26;;;;;;;5.85;2.85;;;15.00;71.20;;;;;;2269192;55;21073;-86
2021/09/19 03:09:53;;;;;;;9.27;4.00;;;15.00;70.90;;;;;;2272722;55;21080;-87
2021/09/19 03:12:19;;;;;;;5.47;3.20;;;15.00;71.00;;;;;;2489968;53;21086;-86
2021/09/19 03:14:45;;;;;;;5.35;3.62;;;14.90;71.00;;;;;;2241368;56;20994;-87
2021/09/19 03:17:12;;;;;;;6.32;3.47;;;14.90;70.90;;;;;;2236108;56;22426;-85
2021/09/19 03:19:38;;;;;;;6.90;4.05;;;14.90;71.00;;;;;;2482453;55;21069;-86
2021/09/19 03:22:04;;;;;;;5.37;3.17;;;14.90;71.00;;;;;;2256844;56;21049;-85
2021/09/19 03:24:30;;;;;;;5.35;3.17;;;14.90;71.00;;;;;;2481346;55;21060;-85
2021/09/19 03:26:57;;;;;;;5.30;3.28;;;14.90;71.10;;;;;;2262724;56;21012;-86
2021/09/19 03:29:23;;;;;;;4.40;2.97;;;14.80;71.10;;;;;;2481588;55;21000;-86
2021/09/19 03:31:49;;;;;;;5.65;3.50;;;14.80;71.10;;;;;;2262314;56;22032;-86
2021/09/19 03:34:15;;;;;;;5.28;3.20;;;14.80;71.10;;;;;;2264215;56;21028;-86
2021/09/19 03:36:42;;;;;;;4.43;3.30;;;14.80;71.20;;;;;;2254056;56;21465;-86
2021/09/19 03:39:08;;;;;;;6.97;3.80;;;14.80;71.20;;;;;;2246202;56;20998;-87
2021/09/19 03:41:34;;;;;;;6.30;3.90;;;14.70;71.20;;;;;;2230114;56;21015;-85
2021/09/19 03:44:01;;;;;;;7.65;3.22;;;14.70;71.40;;;;;;2479694;54;21043;-86
2021/09/19 03:46:28;;;;;;;5.30;3.65;;;14.70;71.50;;;;;;2272560;56;21051;-85
2021/09/19 03:48:55;;;;;;;7.32;4.40;;;14.70;71.50;;;;;;2462376;55;21156;-85
2021/09/19 03:51:21;;;;;;;5.20;3.90;;;14.70;71.50;;;;;;2243172;56;21057;-86
2021/09/19 03:53:48;;;;;;;6.22;4.35;;;14.70;71.60;;;;;;2222284;56;21105;-85
2021/09/19 03:56:14;;;;;;;5.60;3.70;;;14.70;71.60;;;;;;2457313;55;21011;-85
2021/09/19 03:58:41;;;;;;;5.28;3.80;;;14.70;71.60;;;;;;2250943;56;21152;-86
2021/09/19 04:01:07;;;;;;;6.10;3.83;;;14.70;71.60;;;;;;2254277;55;21066;-85
2021/09/19 04:03:33;;;;;;;5.10;3.58;;;14.70;71.70;;;;;;2473465;55;20994;-86
2021/09/19 04:05:59;;;;;;;5.75;3.85;;;14.70;71.60;;;;;;2463998;55;22117;-86
2021/09/19 04:08:26;;;;;;;5.28;3.78;;;14.70;71.50;;;;;;2247822;56;21982;-86
2021/09/19 04:10:52;;;;;;;6.53;4.37;;;14.70;71.50;;;;;;2475057;55;21055;-85
2021/09/19 04:13:18;;;;;;;7.30;4.35;;;14.70;71.50;;;;;;2269715;55;20992;-85
2021/09/19 04:15:44;;;;;;;6.37;3.92;;;14.70;71.50;;;;;;2471031;54;20972;-86
2021/09/19 04:18:11;;;;;;;5.60;3.87;;;14.60;71.40;;;;;;2439280;55;21093;-84
2021/09/19 04:20:37;;;;;;;5.18;3.40;;;14.70;71.60;;;;;;2471855;55;21095;-86
2021/09/19 04:23:03;;;;;;;4.97;3.37;;;14.60;71.50;;;;;;2477192;54;20949;-86
2021/09/19 04:25:29;;;;;;;4.80;3.20;;;14.60;71.40;;;;;;2262942;55;21629;-86
2021/09/19 04:27:56;;;;;;;5.00;3.65;;;14.60;71.40;;;;;;2257968;55;21696;-86
2021/09/19 04:30:22;;;;;;;5.70;3.85;;;14.60;71.40;;;;;;2258082;55;20965;-87
2021/09/19 04:32:48;;;;;;;5.25;3.50;;;14.60;71.50;;;;;;2248183;56;21011;-86
2021/09/19 04:35:14;;;;;;;5.72;3.40;;;14.60;71.50;;;;;;2270913;55;21009;-85
2021/09/19 04:37:41;;;;;;;5.57;3.55;;;14.60;71.50;;;;;;2462073;55;20978;-86
2021/09/19 04:40:07;;;;;;;5.60;3.67;;;14.60;71.70;;;;;;2447307;55;20971;-85
2021/09/19 04:42:33;;;;;;;8.15;3.87;;;14.50;71.40;;;;;;2460328;55;21196;-85
2021/09/19 04:45:00;;;;;;;8.07;3.83;;;14.50;71.40;;;;;;2256180;55;21045;-86
2021/09/19 04:47:26;;;;;;;5.32;3.92;;;14.50;71.40;;;;;;2481024;54;21013;-84
2021/09/19 04:49:52;;;;;;;7.87;4.30;;;14.50;71.50;;;;;;2474598;55;21081;-86
2021/09/19 04:52:19;;;;;;;5.68;4.43;;;14.50;71.60;;;;;;2262040;55;21060;-86
2021/09/19 04:54:45;;;;;;;6.20;4.30;;;14.50;71.50;;;;;;2266883;55;21062;-86
2021/09/19 04:57:11;;;;;;;5.65;3.53;;;14.50;71.60;;;;;;2474813;55;21035;-84
2021/09/19 04:59:37;;;;;;;5.37;3.70;;;14.50;71.70;;;;;;2265543;55;21084;-85
2021/09/19 05:02:04;;;;;;;5.40;3.62;;;14.40;71.50;;;;;;2257868;55;21071;-87
2021/09/19 05:04:31;;;;;;;4.70;3.50;;;14.40;71.60;;;;;;2259369;56;21004;-85
2021/09/19 05:06:57;;;;;;;7.28;3.75;;;14.40;71.70;;;;;;2256489;55;21109;-87
2021/09/19 05:09:23;;;;;;;5.37;3.42;;;14.40;71.70;;;;;;2234213;56;20968;-86
2021/09/19 05:11:50;;;;;;;5.62;3.83;;;14.40;71.90;;;;;;2475705;55;21852;-86
2021/09/19 05:14:16;;;;;;;6.22;3.70;;;14.40;71.90;;;;;;2257500;55;21073;-85
2021/09/19 05:16:42;;;;;;;5.53;3.70;;;14.50;72.00;;;;;;2484201;55;21032;-86
2021/09/19 05:19:09;;;;;;;6.75;3.47;;;14.50;72.10;;;;;;2465047;55;21087;-85
2021/09/19 05:21:35;;;;;;;5.43;3.47;;;14.50;72.10;;;;;;2249589;56;21557;-85
2021/09/19 05:24:01;;;;;;;5.07;3.50;;;14.50;72.20;;;;;;2466038;55;21090;-86
2021/09/19 05:26:28;;;;;;;4.15;2.80;;;14.50;72.20;;;;;;2247701;56;20983;-86
2021/09/19 05:28:54;;;;;;;5.05;2.97;;;14.50;72.30;;;;;;2480840;54;21127;-86
2021/09/19 05:31:20;;;;;;;4.28;2.75;;;14.50;72.30;;;;;;2454433;55;20994;-85
2021/09/19 05:33:47;;;;;;;6.07;3.60;;;14.50;72.40;;;;;;2472407;55;20996;-86
2021/09/19 05:36:14;;;;;;;6.40;4.43;;;14.50;72.30;;;;;;2483035;55;21487;-85
2021/09/19 05:38:40;;;;;;;6.65;3.67;;;14.50;72.30;;;;;;2477131;55;20931;-85
2021/09/19 05:41:06;;;;;;;6.10;4.53;;;14.60;72.30;;;;;;2267009;55;20999;-86
2021/09/19 05:43:33;;;;;;;6.12;4.32;;;14.60;72.10;;;;;;2480109;55;21038;-87
2021/09/19 05:45:59;;;;;;;6.62;4.72;;;14.60;72.40;;;;;;2256161;56;21117;-85
2021/09/19 05:48:25;;;;;;;5.80;4.20;;;14.60;72.50;;;;;;2454257;55;20966;-85
2021/09/19 05:50:52;;;;;;;6.55;4.32;;;14.60;72.60;;;;;;2458456;55;21050;-85
2021/09/19 05:53:18;;;;;;;5.90;4.57;;;14.60;72.70;;;;;;2233755;56;21042;-84
2021/09/19 05:55:44;;;;;;;7.18;4.68;;;14.70;72.90;;;;;;2231012;56;20937;-86
2021/09/19 05:58:11;;;;;;;6.57;4.72;;;14.70;73.00;;;;;;2435051;55;21926;-85
2021/09/19 06:00:37;;;;;;;8.00;4.82;;;14.70;73.10;;;;;;2462186;55;21032;-86
2021/09/19 06:03:03;;;;;;;7.40;5.35;;;14.70;73.20;;;;;;2475592;55;20976;-86
2021/09/19 06:05:29;;;;;;;8.15;5.75;;;14.80;73.30;;;;;;2470503;55;20961;-85
2021/09/19 06:07:56;;;;;;;6.40;4.62;;;14.80;73.30;;;;;;2467203;55;20971;-85
2021/09/19 06:10:22;;;;;;;6.28;4.50;;;14.80;73.40;;;;;;2464730;55;21090;-87
2021/09/19 06:12:48;;;;;;;6.78;4.45;;;14.90;73.60;;;;;;2229748;56;20952;-86
2021/09/19 06:15:15;;;;;;;8.20;5.97;;;14.90;73.80;;;;;;2461507;55;21050;-86
2021/09/19 06:17:41;;;;;;;8.93;6.50;;;15.00;73.90;;;;;;2486093;55;20980;-85
2021/09/19 06:20:08;;;;;;;9.13;6.15;;;15.00;73.80;;;;;;2469588;55;21011;-85
2021/09/19 06:22:34;;;;;;;7.28;5.40;;;15.00;73.90;;;;;;2266186;56;21041;-85
2021/09/19 06:25:01;;;;;;;7.43;5.15;;;15.10;73.90;;;;;;2249224;56;21040;-85
2021/09/19 06:27:27;;;;;;;7.93;5.57;;;15.10;74.00;;;;;;2439645;55;20985;-84
2021/09/19 06:29:53;;;;;;;8.57;5.97;;;15.10;74.20;;;;;;2443421;55;21045;-85
2021/09/19 06:32:20;;;;;;;7.53;5.37;;;15.20;74.50;;;;;;2256651;55;20968;-85
2021/09/19 06:34:46;;;;;;;7.45;5.40;;;15.30;74.70;;;;;;2486680;54;21970;-85
2021/09/19 06:37:13;;;;;;;7.95;5.80;;;15.30;74.80;;;;;;2487831;54;21045;-86
2021/09/19 06:39:41;;;;;;;9.68;7.03;;;15.30;74.90;;;;;;2486285;54;21483;-85
2021/09/19 06:42:07;;;;;;;9.18;6.70;;;15.40;75.10;;;;;;2488527;54;21037;-84
2021/09/19 06:44:34;;;;;;;10.02;6.50;;;15.50;75.20;;;;;;2285439;55;21453;-85
2021/09/19 06:47:00;;;;;;;9.70;7.60;;;15.50;75.20;;;;;;2244515;55;21983;-85
2021/09/19 06:49:26;;;;;;;12.15;8.88;;;15.70;75.50;;;;;;2484145;54;20988;-85
2021/09/19 06:51:53;;;;;;;11.75;8.93;;;15.80;75.40;;;;;;2460340;55;20963;-85
2021/09/19 06:54:19;;;;;;;13.07;9.50;;;15.80;75.30;;;;;;2238022;56;21027;-84
2021/09/19 06:56:48;;;;;;;11.77;9.05;;;15.90;75.20;;;;;;2488691;54;21615;-86
2021/09/19 06:59:14;;;;;;;10.50;7.78;;;15.90;75.10;;;;;;2242677;56;21065;-85
2021/09/19 07:01:40;;;;;;;10.27;7.53;;;16.00;75.10;;;;;;2486412;54;20970;-85
2021/09/19 07:04:07;;;;;;;11.43;7.87;;;16.10;75.30;;;;;;2252634;56;21786;-83
2021/09/19 07:06:33;;;;;;;10.00;7.28;;;16.10;75.40;;;;;;2258942;56;21104;-84
2021/09/19 07:09:00;;;;;;;13.62;8.20;;;16.20;75.60;;;;;;2485748;54;20994;-86
2021/09/19 07:11:26;;;;;;;10.75;8.00;;;16.30;75.70;;;;;;2454571;56;20995;-84
2021/09/19 07:13:55;;;;;;;10.80;8.05;;;16.40;75.70;;;;;;2244407;56;21143;-85
2021/09/19 07:16:21;;;;;;;9.50;7.40;;;16.40;75.60;;;;;;2437629;55;21029;-86
2021/09/19 07:18:48;;;;;;;11.20;8.02;;;16.50;75.90;;;;;;2468834;54;21033;-87
2021/09/19 07:21:17;;;;;;;12.15;8.60;;;16.60;75.60;;;;;;2263508;55;21022;-88
2021/09/19 07:23:43;;;;;;;12.15;8.45;;;16.60;75.60;;;;;;2462612;55;21000;-85
2021/09/19 07:26:10;;;;;;;11.02;8.52;;;16.70;75.60;;;;;;2455335;55;21022;-82
2021/09/19 07:28:36;;;;;;;13.10;9.07;;;16.80;75.60;;;;;;2473670;55;21013;-84
2021/09/19 07:31:03;;;;;;;12.30;8.38;;;16.80;75.50;;;;;;2490454;54;20976;-86
2021/09/19 07:33:29;;;;;;;12.00;8.48;;;16.90;75.30;;;;;;2490354;54;21574;-85
2021/09/19 07:35:56;;;;;;;10.57;7.35;;;16.90;75.00;;;;;;2263079;56;20932;-85
2021/09/19 07:38:22;;;;;;;10.13;7.43;;;17.00;75.00;;;;;;2491109;55;21025;-85
2021/09/19 07:40:48;;;;;;;9.13;7.12;;;17.00;74.80;;;;;;2490947;54;20998;-86
2021/09/19 07:43:15;;;;;;;11.15;7.43;;;17.00;74.80;;;;;;2491018;54;20932;-84
2021/09/19 07:45:41;;;;;;;11.88;8.30;;;17.10;74.90;;;;;;2489378;54;20949;-84
2021/09/19 07:48:14;;;;;;;12.23;8.60;;;17.10;74.90;;;;;;2473554;54;20977;-85
2021/09/19 07:50:41;;;;;;;10.93;8.02;;;17.20;74.90;;;;;;2252931;56;21002;-85
2021/09/19 07:53:07;;;;;;;11.63;7.60;;;17.20;75.10;;;;;;2258777;56;20949;-85
2021/09/19 07:55:39;;;;;;;11.27;8.55;;;17.20;75.20;;;;;;2263289;56;20984;-83
2021/09/19 07:58:05;;;;;;;10.60;8.18;;;17.30;75.20;;;;;;2489149;54;20996;-85
2021/09/19 08:00:31;;;;;;;11.70;7.82;;;17.30;75.10;;;;;;2488693;54;21036;-85
2021/09/19 08:02:57;;;;;;;12.05;8.60;;;17.40;75.30;;;;;;2491219;55;20976;-84
2021/09/19 08:05:24;;;;;;;10.80;8.02;;;17.40;75.50;;;;;;2503857;54;21003;-82
2021/09/19 08:07:51;;;;;;;11.80;8.45;;;17.50;75.70;;;;;;2493899;54;20961;-79
2021/09/19 08:10:18;;;;;;;13.55;9.15;;;17.60;75.80;;;;;;2263954;56;21864;-79
2021/09/19 08:12:46;;;;;;;15.23;10.13;;;17.60;75.60;;;;;;2489886;55;20928;-79
2021/09/19 08:15:14;;;;;;;13.95;10.55;;;17.70;75.50;;;;;;2490760;55;20945;-80
2021/09/19 08:17:42;;;;;;;14.45;11.00;;;17.80;75.20;;;;;;2261494;56;20929;-78
2021/09/19 08:20:10;;;;;;;12.37;9.90;;;17.80;74.90;;;;;;2490791;54;22001;-80
2021/09/19 08:22:36;;;;;;;12.90;10.27;;;17.90;74.80;;;;;;2244492;56;20947;-79
2021/09/19 08:25:06;;;;;;;11.35;9.40;;;17.90;74.80;;;;;;2489661;54;21016;-79
2021/09/19 08:27:36;;;;;;;11.30;8.27;;;18.00;75.10;;;;;;2247564;55;21003;-79
2021/09/19 08:30:04;;;;;;;11.23;8.75;;;18.00;75.20;;;;;;2263367;55;21230;-80
2021/09/19 08:32:33;;;;;;;11.93;7.85;;;18.10;75.20;;;;;;2463132;55;21841;-78
2021/09/19 08:35:00;;;;;;;12.07;8.52;;;18.20;75.60;;;;;;2232769;56;22142;-78
2021/09/19 08:37:26;;;;;;;11.55;8.38;;;18.30;75.90;;;;;;2263868;56;20925;-79
2021/09/19 08:39:53;;;;;;;16.73;10.90;;;18.30;76.00;;;;;;2505565;54;20951;-79
2021/09/19 08:42:20;;;;;;;13.27;9.85;;;18.40;75.50;;;;;;2488775;55;21045;-79
2021/09/19 08:44:47;;;;;;;13.00;9.80;;;18.50;75.60;;;;;;2494189;54;22176;-78
2021/09/19 08:47:13;;;;;;;12.32;9.50;;;18.60;75.80;;;;;;2504172;54;21032;-79
2021/09/19 08:49:42;;;;;;;13.62;9.15;;;18.70;75.90;;;;;;2275647;55;20980;-79
2021/09/19 08:52:10;;;;;;;14.77;10.90;;;18.80;75.90;;;;;;2261922;56;20992;-79
2021/09/19 08:54:39;;;;;;;13.50;9.43;;;18.90;75.50;;;;;;2483094;55;20949;-79
2021/09/19 08:57:05;;;;;;;13.85;9.70;;;19.00;75.50;;;;;;2222848;57;21867;-79
2021/09/19 08:59:48;;;;;;;11.98;8.95;;;19.10;75.60;;;;;;2256829;56;21039;-78
2021/09/19 09:02:15;;;;;;;10.55;8.48;;;19.20;74.70;;;;;;2271385;56;22105;-79
2021/09/19 09:04:42;;;;;;;11.90;7.80;;;19.20;75.40;;;;;;2239790;56;21087;-79
2021/09/19 09:07:09;;;;;;;10.35;7.57;;;19.30;75.30;;;;;;2460471;55;21767;-80
2021/09/19 09:09:35;;;;;;;10.82;7.18;;;19.40;75.30;;;;;;2237094;56;21023;-80
2021/09/19 09:12:10;;;;;;;10.40;8.10;;;19.40;75.20;;;;;;2462508;54;21991;-79
2021/09/19 09:14:57;;;;;;;11.57;9.18;;;19.50;75.00;;;;;;2463160;55;21074;-80
2021/09/19 09:17:27;;;;;;;10.05;7.68;;;19.60;74.00;;;;;;2238364;56;20959;-79
2021/09/19 09:20:09;;;;;;;8.07;6.28;;;19.70;74.70;;;;;;2484401;54;21765;-79
2021/09/19 09:22:36;;;;;;;8.32;6.22;;;19.80;74.30;;;;;;2460482;55;21039;-79
2021/09/19 09:25:14;;;;;;;7.40;5.93;;;19.80;74.90;;;;;;2458796;55;20978;-80
2021/09/19 09:27:45;;;;;;;8.68;5.97;;;19.90;74.20;;;;;;2457486;55;20979;-79
2021/09/19 09:30:25;;;;;;;9.48;5.85;;;20.00;74.60;;;;;;2436434;55;20966;-79
2021/09/19 09:33:02;;;;;;;7.37;4.90;;;20.00;73.50;;;;;;2255934;56;21026;-79
2021/09/19 09:35:36;;;;;;;7.95;5.60;;;20.10;74.00;;;;;;2254055;55;20995;-81
2021/09/19 09:38:19;;;;;;;6.03;4.60;;;20.20;73.90;;;;;;2253544;55;21881;-79
2021/09/19 09:40:45;;;;;;;6.25;4.55;;;20.20;73.30;;;;;;2274687;56;21612;-81
2021/09/19 09:43:13;;;;;;;7.95;4.70;;;20.30;74.00;;;;;;2463366;55;21558;-79
2021/09/19 09:45:41;;;;;;;7.82;5.28;;;20.40;73.60;;;;;;2487432;54;21039;-83
2021/09/19 09:49:42;;;;;;;7.05;4.93;;;20.30;73.20;;;;;;2508427;53;21062;-80
2021/09/19 09:52:17;;;;;;;5.45;3.40;;;20.40;72.10;;;;;;2478716;54;21060;-79
2021/09/19 09:54:52;;;;;;;5.00;3.33;;;20.40;72.90;;;;;;2452857;54;21004;-84
2021/09/19 09:58:15;;;;;;;5.40;3.50;;;20.40;73.20;;;;;;2453720;55;21023;-84
2021/09/19 10:00:42;;;;;;;4.70;2.70;;;20.40;72.40;;;;;;2274966;55;21047;-83
2021/09/19 10:03:08;;;;;;;4.30;2.70;;;20.40;72.80;;;;;;2270399;55;20969;-83
2021/09/19 10:05:35;;;;;;;3.92;2.60;;;20.40;72.80;;;;;;2500056;53;21645;-84
2021/09/19 10:08:01;;;;;;;4.87;2.65;;;20.40;72.80;;;;;;2506728;53;21052;-82
2021/09/19 10:10:29;;;;;;;4.00;2.12;;;20.50;73.30;;;;;;2461796;54;21112;-83
2021/09/19 10:12:56;;;;;;;3.72;1.80;;;20.50;72.60;;;;;;2512286;53;21005;-83
2021/09/19 10:15:24;;;;;;;2.70;1.42;;;20.50;72.90;;;;;;2494105;53;20981;-83
2021/09/19 10:17:50;;;;;;;3.15;1.23;;;20.50;73.00;;;;;;2484633;54;21057;-84
2021/09/19 10:20:22;;;;;;;2.75;1.20;;;20.50;73.00;;;;;;2268849;55;21052;-85
2021/09/19 10:23:28;;;;;;;2.75;1.33;;;20.50;72.40;;;;;;2273853;55;21017;-85
2021/09/19 10:26:00;;;;;;;2.40;1.10;;;20.50;72.00;;;;;;2268307;55;22155;-83
2021/09/19 10:29:00;;;;;;;2.05;0.95;;;20.60;72.30;;;;;;2488312;54;20972;-85
2021/09/19 10:31:32;;;;;;;2.58;1.00;;;20.60;71.40;;;;;;2239320;56;21118;-83
2021/09/19 10:34:02;;;;;;;;;;;20.60;72.30;;;;;;2245108;56;21240;-83
2021/09/19 10:37:03;;;;;;;1.27;0.60;;;20.60;72.10;;;;;;2259778;56;20125;-83
2021/09/19 10:39:39;;;;;;;0.85;0.50;;;20.60;72.70;;;;;;2247879;56;21801;-82
2021/09/19 10:42:30;;;;;;;1.23;0.50;;;20.60;71.90;;;;;;2460306;55;21070;-84
2021/09/19 10:45:10;;;;;;;0.82;0.40;;;20.70;71.70;;;;;;2471656;55;20967;-85
2021/09/19 10:48:07;;;;;;;0.88;0.40;;;20.70;72.20;;;;;;2475516;55;21020;-85
2021/09/19 10:50:36;;;;;;;1.55;0.32;;;20.80;72.20;;;;;;2265432;55;21037;-85
2021/09/19 10:53:23;;;;;;;0.95;0.40;;;20.80;73.60;;;;;;2263547;56;22049;-84
2021/09/19 10:55:59;;;;;;;1.23;0.40;;;20.90;72.60;;;;;;2476336;55;20981;-82
2021/09/19 10:58:30;;;;;;;1.35;0.60;;;21.00;72.90;;;;;;2479798;55;20984;-83
2021/09/19 11:04:34;;;;;;;1.40;0.65;;;21.10;72.50;;;;;;2480398;55;21003;-85
2021/09/19 11:07:00;;;;;;;0.85;0.40;;;21.20;71.50;;;;;;2483231;55;21017;-84
2021/09/19 11:09:35;;;;;;;0.88;0.40;;;21.20;72.60;;;;;;2484008;55;20981;-84
2021/09/19 11:12:14;;;;;;;1.12;0.50;;;21.30;72.10;;;;;;2265912;56;21296;-83
2021/09/19 11:15:06;;;;;;;0.68;0.30;;;21.40;72.10;;;;;;2480747;55;21036;-84
2021/09/19 11:17:46;;;;;;;1.42;0.60;;;21.40;71.20;;;;;;2484688;55;20923;-83
2021/09/19 11:20:24;;;;;;;1.15;0.50;;;21.50;71.10;;;;;;2261074;56;21028;-84
2021/09/19 11:22:52;;;;;;;2.00;0.73;;;21.50;69.40;;;;;;2470901;55;21067;-85
2021/09/19 11:25:19;;;;;;;1.02;0.47;;;21.50;70.00;;;;;;2267578;56;21008;-84
2021/09/19 11:27:46;;;;;;;0.90;0.50;;;21.40;69.90;;;;;;2480734;55;22119;-84
2021/09/19 11:30:13;;;;;;;1.23;0.60;;;21.40;69.60;;;;;;2421889;55;22285;-84
2021/09/19 11:32:39;;;;;;;1.30;0.55;;;21.40;69.70;;;;;;2451865;55;21027;-85
2021/09/19 11:35:06;;;;;;;0.93;0.40;;;21.30;69.70;;;;;;2465160;55;21840;-86
2021/09/19 11:37:33;;;;;;;1.12;0.50;;;21.30;70.30;;;;;;2477852;55;21065;-85
2021/09/19 11:39:59;;;;;;;1.33;0.47;;;21.30;69.80;;;;;;2476245;55;21440;-84
2021/09/19 11:42:26;;;;;;;0.98;0.40;;;21.20;70.10;;;;;;2481158;55;21474;-84
2021/09/19 11:44:52;;;;;;;0.93;0.43;;;21.20;70.60;;;;;;2273496;55;20985;-85
2021/09/19 11:47:19;;;;;;;1.35;0.60;;;21.20;70.80;;;;;;2256523;55;22118;-84
2021/09/19 11:49:46;;;;;;;1.73;0.60;;;21.20;70.80;;;;;;2232817;56;21470;-83
2021/09/19 11:52:14;;;;;;;1.23;0.60;;;21.20;70.50;;;;;;2229987;56;21032;-84
2021/09/19 11:54:41;;;;;;;1.17;0.57;;;21.20;70.30;;;;;;2450614;55;20976;-83
2021/09/19 11:57:07;;;;;;;0.82;0.40;;;21.30;70.60;;;;;;2251895;56;20949;-84
2021/09/19 11:59:33;;;;;;;0.88;0.40;;;21.30;70.80;;;;;;2475366;55;20949;-83
2021/09/19 12:01:59;;;;;;;1.20;0.40;;;21.30;70.80;;;;;;2260337;55;21879;-83
2021/09/19 12:04:27;;;;;;;0.68;0.32;;;21.30;70.80;;;;;;2254135;56;21073;-83
2021/09/19 12:06:53;;;;;;;1.20;0.50;;;21.30;70.80;;;;;;2484116;54;20960;-83
2021/09/19 12:09:21;;;;;;;0.73;0.40;;;21.30;70.60;;;;;;2258601;56;21872;-81
2021/09/19 12:11:56;;;;;;;1.00;0.40;;;21.30;70.50;;;;;;2243077;56;21011;-82
2021/09/19 12:14:27;;;;;;;0.95;0.50;;;21.30;70.10;;;;;;2243843;56;20984;-82
2021/09/19 12:16:57;;;;;;;1.37;0.70;;;21.30;70.30;;;;;;2243922;56;21038;-82
2021/09/19 12:19:23;;;;;;;1.62;0.70;;;21.30;70.10;;;;;;2462648;54;20936;-82
2021/09/19 12:21:57;;;;;;;2.05;0.90;;;21.20;71.10;;;;;;2268863;56;21007;-81
2021/09/19 12:24:24;;;;;;;2.75;1.10;;;21.20;70.00;;;;;;2262895;56;20947;-83
2021/09/19 12:26:50;;;;;;;2.95;1.40;;;21.20;70.10;;;;;;2504369;54;20990;-81
2021/09/19 12:29:18;;;;;;;2.72;1.30;;;21.10;69.90;;;;;;2477664;54;21861;-81
2021/09/19 12:31:48;;;;;;;3.70;1.52;;;21.10;70.00;;;;;;2501688;54;20965;-81
2021/09/19 12:34:16;;;;;;;3.08;1.60;;;21.10;69.90;;;;;;2232922;57;21092;-80
2021/09/19 12:36:49;;;;;;;3.12;1.70;;;21.00;69.90;;;;;;2263350;55;20980;-83
2021/09/19 12:39:21;;;;;;;3.15;1.77;;;21.00;70.00;;;;;;2479887;54;21036;-81
2021/09/19 12:41:52;;;;;;;3.30;2.10;;;21.00;69.60;;;;;;2265414;56;20988;-81
2021/09/19 12:44:20;;;;;;;3.90;1.95;;;20.90;69.60;;;;;;2447717;55;21272;-81
2021/09/19 12:46:51;;;;;;;3.40;2.10;;;20.90;69.60;;;;;;2479939;55;21057;-82
2021/09/19 12:49:21;;;;;;;4.00;2.42;;;20.80;69.40;;;;;;2267631;55;20972;-81
2021/09/19 12:52:07;;;;;;;3.50;2.10;;;20.80;69.50;;;;;;2265736;55;20961;-82
2021/09/19 12:54:34;;;;;;;4.00;2.30;;;20.70;68.90;;;;;;2259271;55;21322;-84
2021/09/19 12:57:01;;;;;;;4.22;2.37;;;20.70;69.20;;;;;;2483437;55;21022;-84